Terminal Aerodrome Forecast
Issued by NWS Quad Cities IA IL

Home | Current Version | Previous Version | Text Only | Print | Product List | Glossary On
Versions: 1 2 3 4 5 6 7 8 9 10 11 12 13 14 15 16 17
786
FTUS43 KDVN 101130
TAFMLI
TAF
KMLI 101130Z 1012/1112 23004KT P6SM OVC050
     FM101700 15007KT P6SM -SN OVC035
     FM102100 14012KT 3SM -SN BR OVC025
     FM110000 12009KT 2SM -SN BR OVC025
      TEMPO 1100/1103 1 1/2SM -SN OVC015
     FM110300 11010KT 4SM -SN BR OVC030=

USA.gov is the U.S. government's official web portal to all federal, state and local government web resources and services.